sensor_id;sensor_type;location;lat;lon;timestamp;temperature;humidity
18268;DHT22;9260;49.998;19.880;2022-07-09T00:00:24;13.20;99.90
18268;DHT22;9260;49.998;19.880;2022-07-09T00:10:27;13.20;99.90
18268;DHT22;9260;49.998;19.880;2022-07-09T00:20:33;13.20;99.90
18268;DHT22;9260;49.998;19.880;2022-07-09T00:30:37;13.20;99.90
18268;DHT22;9260;49.998;19.880;2022-07-09T00:40:43;13.20;99.90
18268;DHT22;9260;49.998;19.880;2022-07-09T00:50:47;13.20;99.90
18268;DHT22;9260;49.998;19.880;2022-07-09T01:00:53;13.20;99.90
18268;DHT22;9260;49.998;19.880;2022-07-09T01:10:57;13.20;99.90
18268;DHT22;9260;49.998;19.880;2022-07-09T01:21:03;13.20;99.90
18268;DHT22;9260;49.998;19.880;2022-07-09T01:31:07;13.10;99.90
18268;DHT22;9260;49.998;19.880;2022-07-09T01:41:13;13.00;99.90
18268;DHT22;9260;49.998;19.880;2022-07-09T01:51:17;13.10;99.90
18268;DHT22;9260;49.998;19.880;2022-07-09T02:01:22;13.00;99.90
18268;DHT22;9260;49.998;19.880;2022-07-09T02:11:26;13.00;99.90
18268;DHT22;9260;49.998;19.880;2022-07-09T02:21:31;12.90;99.90
18268;DHT22;9260;49.998;19.880;2022-07-09T02:31:35;12.70;99.90
18268;DHT22;9260;49.998;19.880;2022-07-09T02:41:41;12.60;99.90
18268;DHT22;9260;49.998;19.880;2022-07-09T02:51:44;12.60;99.90
18268;DHT22;9260;49.998;19.880;2022-07-09T03:01:50;12.70;99.90
18268;DHT22;9260;49.998;19.880;2022-07-09T03:11:54;12.90;99.90
18268;DHT22;9260;49.998;19.880;2022-07-09T03:21:59;12.90;99.90
18268;DHT22;9260;49.998;19.880;2022-07-09T03:32:04;13.00;99.90
18268;DHT22;9260;49.998;19.880;2022-07-09T03:42:10;13.10;99.90
18268;DHT22;9260;49.998;19.880;2022-07-09T03:52:14;13.20;99.90
18268;DHT22;9260;49.998;19.880;2022-07-09T04:02:26;13.20;99.90
18268;DHT22;9260;49.998;19.880;2022-07-09T04:12:30;13.40;99.90
18268;DHT22;9260;49.998;19.880;2022-07-09T04:22:35;13.50;99.90
18268;DHT22;9260;49.998;19.880;2022-07-09T04:32:39;13.60;99.90
18268;DHT22;9260;49.998;19.880;2022-07-09T04:42:44;13.90;99.90
18268;DHT22;9260;49.998;19.880;2022-07-09T04:52:49;14.20;99.90
18268;DHT22;9260;49.998;19.880;2022-07-09T05:02:54;14.70;99.90
18268;DHT22;9260;49.998;19.880;2022-07-09T05:13:01;15.20;99.90
18268;DHT22;9260;49.998;19.880;2022-07-09T05:23:07;15.30;99.90
18268;DHT22;9260;49.998;19.880;2022-07-09T05:33:10;16.00;99.90
18268;DHT22;9260;49.998;19.880;2022-07-09T05:43:16;16.80;99.90
18268;DHT22;9260;49.998;19.880;2022-07-09T05:53:20;16.50;99.90
18268;DHT22;9260;49.998;19.880;2022-07-09T06:03:25;16.80;99.90
18268;DHT22;9260;49.998;19.880;2022-07-09T06:13:29;17.80;99.90
18268;DHT22;9260;49.998;19.880;2022-07-09T06:23:34;17.30;99.90
18268;DHT22;9260;49.998;19.880;2022-07-09T06:33:38;18.20;99.90
18268;DHT22;9260;49.998;19.880;2022-07-09T06:43:44;17.80;99.90
18268;DHT22;9260;49.998;19.880;2022-07-09T06:53:48;17.40;99.90
18268;DHT22;9260;49.998;19.880;2022-07-09T07:03:53;17.80;99.90
18268;DHT22;9260;49.998;19.880;2022-07-09T07:13:57;18.80;99.90
18268;DHT22;9260;49.998;19.880;2022-07-09T07:24:02;19.30;99.90
18268;DHT22;9260;49.998;19.880;2022-07-09T07:34:06;19.20;99.90
18268;DHT22;9260;49.998;19.880;2022-07-09T07:44:11;19.20;99.90
18268;DHT22;9260;49.998;19.880;2022-07-09T07:54:15;18.90;99.90
18268;DHT22;9260;49.998;19.880;2022-07-09T08:04:21;19.80;99.90
18268;DHT22;9260;49.998;19.880;2022-07-09T08:14:24;19.50;99.90
18268;DHT22;9260;49.998;19.880;2022-07-09T08:24:31;19.80;99.90
18268;DHT22;9260;49.998;19.880;2022-07-09T08:34:34;22.00;99.90
18268;DHT22;9260;49.998;19.880;2022-07-09T08:44:40;23.00;99.90
18268;DHT22;9260;49.998;19.880;2022-07-09T08:54:48;23.90;99.90
18268;DHT22;9260;49.998;19.880;2022-07-09T09:05:01;22.70;99.90
18268;DHT22;9260;49.998;19.880;2022-07-09T09:15:10;23.00;99.90
18268;DHT22;9260;49.998;19.880;2022-07-09T09:25:19;23.60;99.90
18268;DHT22;9260;49.998;19.880;2022-07-09T09:35:24;24.30;99.90
18268;DHT22;9260;49.998;19.880;2022-07-09T09:45:33;27.80;99.90
18268;DHT22;9260;49.998;19.880;2022-07-09T09:55:37;31.60;99.90
18268;DHT22;9260;49.998;19.880;2022-07-09T10:05:43;31.80;99.90
18268;DHT22;9260;49.998;19.880;2022-07-09T10:15:48;28.10;99.90
18268;DHT22;9260;49.998;19.880;2022-07-09T10:25:54;24.70;99.90
18268;DHT22;9260;49.998;19.880;2022-07-09T10:36:09;22.30;99.90
18268;DHT22;9260;49.998;19.880;2022-07-09T10:46:15;24.10;99.90
18268;DHT22;9260;49.998;19.880;2022-07-09T10:56:19;33.50;99.90
18268;DHT22;9260;49.998;19.880;2022-07-09T11:06:25;33.80;99.90
18268;DHT22;9260;49.998;19.880;2022-07-09T11:16:31;36.50;1.00
18268;DHT22;9260;49.998;19.880;2022-07-09T11:26:36;34.10;1.00
18268;DHT22;9260;49.998;19.880;2022-07-09T11:36:42;32.30;1.00
18268;DHT22;9260;49.998;19.880;2022-07-09T11:47:03;28.70;99.90
18268;DHT22;9260;49.998;19.880;2022-07-09T11:57:19;31.20;99.90
18268;DHT22;9260;49.998;19.880;2022-07-09T12:07:25;30.30;99.90
18268;DHT22;9260;49.998;19.880;2022-07-09T12:17:30;26.30;99.90
18268;DHT22;9260;49.998;19.880;2022-07-09T12:27:36;28.20;99.90
18268;DHT22;9260;49.998;19.880;2022-07-09T12:37:40;27.50;99.90
18268;DHT22;9260;49.998;19.880;2022-07-09T12:47:45;26.60;99.90
18268;DHT22;9260;49.998;19.880;2022-07-09T12:57:49;26.20;99.90
18268;DHT22;9260;49.998;19.880;2022-07-09T13:07:54;25.10;99.90
18268;DHT22;9260;49.998;19.880;2022-07-09T13:17:58;24.30;99.90
18268;DHT22;9260;49.998;19.880;2022-07-09T13:28:04;24.30;99.90
18268;DHT22;9260;49.998;19.880;2022-07-09T13:38:08;24.20;99.90
18268;DHT22;9260;49.998;19.880;2022-07-09T13:48:20;24.00;99.90
18268;DHT22;9260;49.998;19.880;2022-07-09T13:58:24;24.00;99.90
18268;DHT22;9260;49.998;19.880;2022-07-09T14:08:30;23.40;99.90
18268;DHT22;9260;49.998;19.880;2022-07-09T14:18:34;23.40;99.90
18268;DHT22;9260;49.998;19.880;2022-07-09T14:28:39;23.60;99.90
18268;DHT22;9260;49.998;19.880;2022-07-09T14:38:43;22.80;99.90
18268;DHT22;9260;49.998;19.880;2022-07-09T14:48:48;22.70;99.90
18268;DHT22;9260;49.998;19.880;2022-07-09T14:58:52;23.40;99.90
18268;DHT22;9260;49.998;19.880;2022-07-09T15:08:57;22.70;99.90
18268;DHT22;9260;49.998;19.880;2022-07-09T15:19:01;22.60;99.90
18268;DHT22;9260;49.998;19.880;2022-07-09T15:29:06;22.50;99.90
18268;DHT22;9260;49.998;19.880;2022-07-09T15:39:11;22.30;99.90
18268;DHT22;9260;49.998;19.880;2022-07-09T15:49:16;21.90;99.90
18268;DHT22;9260;49.998;19.880;2022-07-09T15:59:20;20.70;99.90
18268;DHT22;9260;49.998;19.880;2022-07-09T16:09:25;20.50;99.90
18268;DHT22;9260;49.998;19.880;2022-07-09T16:19:30;20.30;99.90
18268;DHT22;9260;49.998;19.880;2022-07-09T16:29:35;20.20;99.90
18268;DHT22;9260;49.998;19.880;2022-07-09T16:39:40;20.40;99.90
18268;DHT22;9260;49.998;19.880;2022-07-09T16:49:45;20.20;99.90
18268;DHT22;9260;49.998;19.880;2022-07-09T17:00:08;19.80;99.90
18268;DHT22;9260;49.998;19.880;2022-07-09T17:10:16;19.60;99.90
18268;DHT22;9260;49.998;19.880;2022-07-09T17:20:21;19.40;99.90
18268;DHT22;9260;49.998;19.880;2022-07-09T17:30:26;19.00;99.90
18268;DHT22;9260;49.998;19.880;2022-07-09T17:40:30;18.80;99.90
18268;DHT22;9260;49.998;19.880;2022-07-09T17:50:35;18.30;99.90
18268;DHT22;9260;49.998;19.880;2022-07-09T18:00:39;17.90;99.90
18268;DHT22;9260;49.998;19.880;2022-07-09T18:10:44;17.50;99.90
18268;DHT22;9260;49.998;19.880;2022-07-09T18:20:48;17.50;99.90
18268;DHT22;9260;49.998;19.880;2022-07-09T18:30:53;17.00;99.90
18268;DHT22;9260;49.998;19.880;2022-07-09T18:40:57;16.70;99.90
18268;DHT22;9260;49.998;19.880;2022-07-09T18:51:03;16.40;99.90
18268;DHT22;9260;49.998;19.880;2022-07-09T19:01:07;16.30;99.90
18268;DHT22;9260;49.998;19.880;2022-07-09T19:11:12;16.00;99.90
18268;DHT22;9260;49.998;19.880;2022-07-09T19:21:17;15.80;99.90
18268;DHT22;9260;49.998;19.880;2022-07-09T19:31:22;15.60;99.90
18268;DHT22;9260;49.998;19.880;2022-07-09T19:41:43;15.40;99.90
18268;DHT22;9260;49.998;19.880;2022-07-09T19:51:48;15.30;99.90
18268;DHT22;9260;49.998;19.880;2022-07-09T20:01:52;15.20;99.90
18268;DHT22;9260;49.998;19.880;2022-07-09T20:11:58;15.00;99.90
18268;DHT22;9260;49.998;19.880;2022-07-09T20:22:02;14.90;99.90
18268;DHT22;9260;49.998;19.880;2022-07-09T20:32:07;14.80;99.90
18268;DHT22;9260;49.998;19.880;2022-07-09T20:42:11;14.70;99.90
18268;DHT22;9260;49.998;19.880;2022-07-09T20:52:16;14.50;99.90
18268;DHT22;9260;49.998;19.880;2022-07-09T21:02:21;13.80;1.00
18268;DHT22;9260;49.998;19.880;2022-07-09T21:12:26;13.40;99.90
18268;DHT22;9260;49.998;19.880;2022-07-09T21:22:30;13.20;1.00
18268;DHT22;9260;49.998;19.880;2022-07-09T21:32:35;13.20;99.90
18268;DHT22;9260;49.998;19.880;2022-07-09T21:42:39;12.80;99.90
18268;DHT22;9260;49.998;19.880;2022-07-09T21:52:44;12.20;99.90
18268;DHT22;9260;49.998;19.880;2022-07-09T22:02:48;12.00;99.90
18268;DHT22;9260;49.998;19.880;2022-07-09T22:12:53;11.60;1.00
18268;DHT22;9260;49.998;19.880;2022-07-09T22:22:57;11.70;99.90
18268;DHT22;9260;49.998;19.880;2022-07-09T22:33:03;11.40;99.90
18268;DHT22;9260;49.998;19.880;2022-07-09T22:43:06;11.20;99.90
18268;DHT22;9260;49.998;19.880;2022-07-09T22:53:12;11.00;99.90
18268;DHT22;9260;49.998;19.880;2022-07-09T23:03:15;10.80;99.90
18268;DHT22;9260;49.998;19.880;2022-07-09T23:13:21;10.70;99.90
18268;DHT22;9260;49.998;19.880;2022-07-09T23:23:24;10.50;99.90
18268;DHT22;9260;49.998;19.880;2022-07-09T23:33:30;10.40;99.90
18268;DHT22;9260;49.998;19.880;2022-07-09T23:53:39;10.20;1.00
